Time;durP1;ratioP1;P1;durP2;ratioP2;P2;SDS_P1;SDS_P2;PMS_P1;PMS_P2;Temp;Humidity;BMP_temperature;BMP_pressure;BME280_temperature;BME280_humidity;BME280_pressure;Samples;Min_cycle;Max_cycle;Signal;HPM_P1;HPM_P2
2023/11/26 00:02:04;;;;;;;0.00;0.00;;;;;;;;;;4997162;28;20053;-88
2023/11/26 00:04:30;;;;;;;0.10;0.10;;;;;;;;;;4989182;28;20042;-89
2023/11/26 00:06:55;;;;;;;0.00;0.00;;;0.70;99.90;;;;;;5007699;28;20026;-88
2023/11/26 00:09:23;;;;;;;0.05;0.05;;;;;;;;;;4978991;28;20059;-88
2023/11/26 00:11:49;;;;;;;0.00;0.00;;;;;;;;;;5005785;28;20027;-87
2023/11/26 00:14:15;;;;;;;0.10;0.10;;;;;;;;;;4987237;28;20427;-88
2023/11/26 00:16:41;;;;;;;0.00;0.00;;;;;;;;;;5002919;28;20030;-89
2023/11/26 00:19:07;;;;;;;0.10;0.10;;;;;;;;;;4989301;28;20494;-88
2023/11/26 00:21:33;;;;;;;0.10;0.10;;;;;;;;;;5001607;28;20117;-88
2023/11/26 00:23:59;;;;;;;0.00;0.00;;;;;;;;;;5000424;28;20125;-88
2023/11/26 00:26:26;;;;;;;0.10;0.10;;;0.80;99.90;;;;;;5004294;28;20058;-88
2023/11/26 00:28:52;;;;;;;0.03;0.03;;;;;;;;;;4989642;28;20030;-88
2023/11/26 00:31:18;;;;;;;0.10;0.10;;;;;;;;;;5002879;28;20484;-87
2023/11/26 00:33:48;;;;;;;0.00;0.00;;;;;;;;;;4994189;28;20022;-88
2023/11/26 00:36:23;;;;;;;0.10;0.10;;;0.80;99.90;;;;;;4996496;28;20545;-88
2023/11/26 00:38:49;;;;;;;0.00;0.00;;;;;;;;;;4985548;28;20030;-88
2023/11/26 00:41:18;;;;;;;0.10;0.10;;;;;;;;;;4984611;28;20035;-87
2023/11/26 00:43:44;;;;;;;0.00;0.00;;;;;;;;;;4990212;28;20060;-88
2023/11/26 00:46:10;;;;;;;0.10;0.10;;;0.70;99.90;;;;;;4995553;28;20062;-87
2023/11/26 00:48:37;;;;;;;0.00;0.00;;;;;;;;;;4994119;28;20102;-87
2023/11/26 00:51:04;;;;;;;0.00;0.00;;;;;;;;;;5006079;28;20030;-89
2023/11/26 00:53:30;;;;;;;0.00;0.00;;;;;;;;;;4994737;28;20026;-87
2023/11/26 00:55:56;;;;;;;0.00;0.00;;;;;;;;;;5000019;28;20404;-88
2023/11/26 00:58:22;;;;;;;0.10;0.10;;;;;;;;;;4998906;28;20034;-86
2023/11/26 01:00:48;;;;;;;0.10;0.10;;;;;;;;;;5000021;28;20489;-88
2023/11/26 01:03:14;;;;;;;0.10;0.10;;;;;;;;;;4983395;28;20061;-88
2023/11/26 01:05:40;;;;;;;0.00;0.00;;;;;;;;;;4990714;28;20041;-88
2023/11/26 01:08:06;;;;;;;0.03;0.03;;;;;;;;;;5001575;28;20118;-88
2023/11/26 01:10:32;;;;;;;0.10;0.10;;;;;;;;;;5007475;28;20445;-88
2023/11/26 01:12:57;;;;;;;0.10;0.10;;;0.60;99.90;;;;;;5014038;28;20039;-87
2023/11/26 01:15:23;;;;;;;0.03;0.03;;;0.60;99.90;;;;;;5008469;28;20053;-88
2023/11/26 01:17:49;;;;;;;0.00;0.00;;;;;;;;;;5009980;28;20446;-86
2023/11/26 01:20:15;;;;;;;0.00;0.00;;;;;;;;;;4979667;28;20403;-87
2023/11/26 01:22:41;;;;;;;0.00;0.00;;;;;;;;;;4997118;28;20022;-88
2023/11/26 01:25:07;;;;;;;0.10;0.10;;;;;;;;;;5001044;28;20039;-88
2023/11/26 01:27:33;;;;;;;0.10;0.10;;;;;;;;;;5001102;28;20035;-88
2023/11/26 01:29:59;;;;;;;0.10;0.10;;;;;;;;;;4985529;28;20420;-88
2023/11/26 01:32:26;;;;;;;0.10;0.10;;;;;;;;;;4997674;28;20042;-88
2023/11/26 01:34:52;;;;;;;0.00;0.00;;;;;;;;;;5002535;28;20027;-88
2023/11/26 01:37:18;;;;;;;0.10;0.10;;;;;;;;;;5006417;28;20087;-88
2023/11/26 01:39:44;;;;;;;0.05;0.05;;;;;;;;;;4984576;28;20120;-88
2023/11/26 01:42:10;;;;;;;0.10;0.10;;;;;;;;;;4987370;28;20030;-86
2023/11/26 01:44:36;;;;;;;0.10;0.10;;;;;;;;;;5002244;28;20027;-87
2023/11/26 01:47:04;;;;;;;0.10;0.10;;;0.60;99.90;;;;;;5000626;28;20042;-86
2023/11/26 01:49:31;;;;;;;0.10;0.10;;;0.70;99.90;;;;;;4979596;28;20118;-89
2023/11/26 01:51:59;;;;;;;0.10;0.10;;;0.70;99.90;;;;;;4993736;28;20469;-88
2023/11/26 01:54:25;;;;;;;0.00;0.00;;;;;;;;;;4984713;28;20034;-87
2023/11/26 01:56:52;;;;;;;0.10;0.10;;;0.70;99.90;;;;;;4984917;28;20030;-87
2023/11/26 01:59:18;;;;;;;0.10;0.10;;;;;;;;;;5005410;28;20031;-88
2023/11/26 02:01:44;;;;;;;0.00;0.00;;;;;;;;;;5000860;28;20034;-86
2023/11/26 02:04:10;;;;;;;0.03;0.03;;;;;;;;;;4988138;28;20044;-86
2023/11/26 02:06:35;;;;;;;0.10;0.10;;;0.60;99.90;;;;;;4985871;28;20113;-85
2023/11/26 02:09:02;;;;;;;0.03;0.03;;;0.70;99.90;;;;;;4998757;28;20038;-86
2023/11/26 02:11:28;;;;;;;0.10;0.10;;;;;;;;;;4989354;28;20034;-86
2023/11/26 02:13:54;;;;;;;0.10;0.10;;;;;;;;;;4999220;28;20025;-86
2023/11/26 02:16:20;;;;;;;0.10;0.10;;;;;;;;;;4986250;28;20030;-86
2023/11/26 02:18:46;;;;;;;0.05;0.05;;;;;;;;;;4987944;28;20030;-86
2023/11/26 02:21:12;;;;;;;0.10;0.10;;;;;;;;;;5004194;28;20045;-86
2023/11/26 02:23:39;;;;;;;0.10;0.10;;;;;;;;;;4999118;28;20023;-86
2023/11/26 02:26:05;;;;;;;0.00;0.00;;;0.70;99.90;;;;;;4986829;28;20022;-86
2023/11/26 02:28:32;;;;;;;0.00;0.00;;;;;;;;;;4988964;28;20106;-86
2023/11/26 02:30:57;;;;;;;0.05;0.05;;;;;;;;;;5000073;28;20427;-86
2023/11/26 02:33:23;;;;;;;0.10;0.10;;;;;;;;;;4990419;28;20041;-85
2023/11/26 02:35:49;;;;;;;0.00;0.00;;;;;;;;;;5003238;28;20046;-86
2023/11/26 02:38:15;;;;;;;0.10;0.10;;;;;;;;;;4985819;28;20053;-87
2023/11/26 02:40:41;;;;;;;0.10;0.10;;;;;;;;;;5002015;28;20058;-86
2023/11/26 02:43:07;;;;;;;0.10;0.10;;;;;;;;;;4989654;28;20042;-86
2023/11/26 02:45:33;;;;;;;0.00;0.00;;;;;;;;;;4991461;28;20049;-85
2023/11/26 02:47:59;;;;;;;0.03;0.03;;;;;;;;;;4984699;28;20022;-86
2023/11/26 02:50:25;;;;;;;0.00;0.00;;;;;;;;;;4985811;28;20495;-86
2023/11/26 02:52:52;;;;;;;0.00;0.00;;;;;;;;;;5001990;28;20026;-86
2023/11/26 02:55:18;;;;;;;0.05;0.05;;;;;;;;;;4990391;28;20444;-86
2023/11/26 02:57:44;;;;;;;0.00;0.00;;;;;;;;;;4998893;28;20030;-86
2023/11/26 03:00:19;;;;;;;0.10;0.10;;;1.00;99.90;;;;;;5004057;28;20038;-86
2023/11/26 03:02:46;;;;;;;0.00;0.00;;;;;;;;;;5003473;28;20030;-87
2023/11/26 03:05:18;;;;;;;0.00;0.00;;;;;;;;;;4985831;28;20069;-86
2023/11/26 03:07:48;;;;;;;0.10;0.10;;;1.10;99.90;;;;;;4984646;28;20027;-86
2023/11/26 03:13:20;;;;;;;0.10;0.10;;;1.00;99.90;;;;;;4985454;28;20116;-85
2023/11/26 03:15:48;;;;;;;0.08;0.08;;;1.00;99.90;;;;;;5002113;28;20022;-86
2023/11/26 03:18:14;;;;;;;0.10;0.10;;;1.10;99.90;;;;;;4989213;28;20121;-86
2023/11/26 03:20:41;;;;;;;0.10;0.10;;;1.00;99.90;;;;;;4989066;28;20030;-86
2023/11/26 03:23:09;;;;;;;0.08;0.08;;;;;;;;;;4986019;28;20057;-85
2023/11/26 03:25:35;;;;;;;0.05;0.05;;;;;;;;;;4990892;28;20023;-86
2023/11/26 03:28:01;;;;;;;0.00;0.00;;;;;;;;;;4983100;28;20046;-86
2023/11/26 03:30:27;;;;;;;0.03;0.03;;;;;;;;;;4992443;28;20037;-86
2023/11/26 03:32:57;;;;;;;0.10;0.10;;;1.20;99.90;;;;;;4990047;28;20037;-85
2023/11/26 03:35:23;;;;;;;0.00;0.00;;;;;;;;;;4984486;28;20450;-86
2023/11/26 03:37:49;;;;;;;0.10;0.10;;;;;;;;;;4988533;28;20022;-86
2023/11/26 03:40:15;;;;;;;0.10;0.10;;;;;;;;;;4996725;28;20030;-86
2023/11/26 03:42:41;;;;;;;0.00;0.00;;;;;;;;;;4990424;28;20033;-86
2023/11/26 03:45:08;;;;;;;0.00;0.00;;;1.10;99.90;;;;;;4993794;28;20391;-86
2023/11/26 03:47:34;;;;;;;0.00;0.00;;;;;;;;;;4985412;28;20039;-86
2023/11/26 03:50:00;;;;;;;0.00;0.00;;;;;;;;;;4988313;28;20023;-86
2023/11/26 03:52:26;;;;;;;0.00;0.00;;;;;;;;;;4988332;28;20037;-86
2023/11/26 03:54:52;;;;;;;0.00;0.00;;;;;;;;;;4987878;28;20042;-85
2023/11/26 03:57:18;;;;;;;0.10;0.10;;;;;;;;;;5005290;28;20038;-86
2023/11/26 03:59:44;;;;;;;0.00;0.00;;;;;;;;;;5007016;28;20110;-85
2023/11/26 04:02:10;;;;;;;0.00;0.00;;;;;;;;;;4992150;28;20551;-86
2023/11/26 04:04:36;;;;;;;0.00;0.00;;;;;;;;;;4991279;28;20057;-86
2023/11/26 04:07:02;;;;;;;0.00;0.00;;;;;;;;;;5001936;28;20121;-86
2023/11/26 04:09:28;;;;;;;0.10;0.10;;;1.00;99.90;;;;;;4985184;28;20030;-87
2023/11/26 04:11:57;;;;;;;0.00;0.00;;;1.10;99.90;;;;;;4997367;28;20026;-86
2023/11/26 04:14:32;;;;;;;0.00;0.00;;;1.00;99.90;;;;;;5000791;28;20023;-87
2023/11/26 04:16:58;;;;;;;0.00;0.00;;;;;;;;;;4991310;28;20372;-86
2023/11/26 04:19:24;;;;;;;0.00;0.00;;;;;;;;;;5006523;28;20042;-86
2023/11/26 04:21:50;;;;;;;0.00;0.00;;;;;;;;;;4992062;28;20026;-87
2023/11/26 04:24:18;;;;;;;0.00;0.00;;;;;;;;;;5008621;28;20039;-86
2023/11/26 04:26:44;;;;;;;0.00;0.00;;;;;;;;;;5001742;28;20487;-86
2023/11/26 04:29:10;;;;;;;0.10;0.10;;;;;;;;;;4987052;28;20114;-87
2023/11/26 04:31:36;;;;;;;0.10;0.10;;;;;;;;;;5008601;28;20034;-86
2023/11/26 04:34:04;;;;;;;0.00;0.00;;;;;;;;;;4997899;28;20077;-85
2023/11/26 04:36:31;;;;;;;0.03;0.03;;;;;;;;;;4993441;28;20129;-87
2023/11/26 04:38:57;;;;;;;0.00;0.00;;;;;;;;;;4991968;28;20030;-87
2023/11/26 04:41:23;;;;;;;0.00;0.00;;;;;;;;;;4999457;28;20032;-85
2023/11/26 04:43:49;;;;;;;0.10;0.10;;;;;;;;;;4990626;28;20113;-86
2023/11/26 04:46:15;;;;;;;0.00;0.00;;;;;;;;;;4996930;28;20441;-86
2023/11/26 04:48:42;;;;;;;0.10;0.10;;;;;;;;;;4989619;28;20034;-86
2023/11/26 04:51:08;;;;;;;0.10;0.10;;;;;;;;;;4993572;28;20031;-86
2023/11/26 04:53:34;;;;;;;0.08;0.08;;;;;;;;;;4988765;28;20458;-86
2023/11/26 04:56:00;;;;;;;0.08;0.08;;;;;;;;;;4980719;28;20106;-85
2023/11/26 04:58:26;;;;;;;0.10;0.10;;;;;;;;;;4996119;28;20030;-87
2023/11/26 05:00:52;;;;;;;0.00;0.00;;;;;;;;;;4990598;28;20022;-86
2023/11/26 05:03:21;;;;;;;0.00;0.00;;;1.20;99.90;;;;;;4994350;28;20034;-86
2023/11/26 05:05:47;;;;;;;0.00;0.00;;;1.10;99.90;;;;;;4986878;28;20042;-86
2023/11/26 05:08:13;;;;;;;0.10;0.10;;;;;;;;;;4988176;28;20027;-86
2023/11/26 05:10:39;;;;;;;0.00;0.00;;;;;;;;;;4989913;28;20019;-86
2023/11/26 05:13:06;;;;;;;0.00;0.00;;;;;;;;;;5002039;28;20517;-86
2023/11/26 05:15:32;;;;;;;0.00;0.00;;;;;;;;;;4986175;28;20511;-86
2023/11/26 05:17:58;;;;;;;0.10;0.10;;;;;;;;;;5006883;28;20030;-87
2023/11/26 05:20:24;;;;;;;0.10;0.10;;;;;;;;;;5000215;28;20556;-86
2023/11/26 05:22:49;;;;;;;0.00;0.00;;;;;;;;;;4993807;28;20491;-86
2023/11/26 05:25:15;;;;;;;0.20;0.20;;;1.30;99.90;;;;;;5010620;28;20541;-86
2023/11/26 05:27:41;;;;;;;0.10;0.10;;;;;;;;;;5001172;28;20110;-87
2023/11/26 05:30:08;;;;;;;0.10;0.10;;;;;;;;;;4997228;28;20047;-86
2023/11/26 05:32:34;;;;;;;0.00;0.00;;;;;;;;;;4993451;28;20467;-86
2023/11/26 05:35:12;;;;;;;0.03;0.03;;;;;;;;;;4990275;28;20033;-86
2023/11/26 05:37:38;;;;;;;0.00;0.00;;;;;;;;;;4991225;28;20027;-86
2023/11/26 05:40:05;;;;;;;0.03;0.03;;;1.40;99.90;;;;;;4996802;28;20057;-85
2023/11/26 05:42:31;;;;;;;0.10;0.10;;;;;;;;;;4987804;28;20098;-86
2023/11/26 05:44:57;;;;;;;0.00;0.00;;;;;;;;;;5006099;28;20050;-85
2023/11/26 05:47:23;;;;;;;0.00;0.00;;;;;;;;;;4996939;28;20042;-86
2023/11/26 05:49:49;;;;;;;0.00;0.00;;;;;;;;;;4993340;28;20078;-86
2023/11/26 05:52:15;;;;;;;0.10;0.10;;;;;;;;;;4979967;28;20046;-86
2023/11/26 05:54:40;;;;;;;0.03;0.03;;;;;;;;;;4994855;28;20101;-86
2023/11/26 05:57:06;;;;;;;0.10;0.10;;;;;;;;;;4999714;28;20066;-86
2023/11/26 05:59:32;;;;;;;0.10;0.10;;;;;;;;;;5010552;28;20416;-86
2023/11/26 06:01:59;;;;;;;0.00;0.00;;;;;;;;;;4989757;28;20026;-86
2023/11/26 06:04:25;;;;;;;0.00;0.00;;;;;;;;;;4998319;28;20109;-86
2023/11/26 06:06:51;;;;;;;0.00;0.00;;;;;;;;;;4989459;28;20121;-86
2023/11/26 06:09:17;;;;;;;0.10;0.10;;;;;;;;;;4985644;28;20083;-87
2023/11/26 06:11:43;;;;;;;0.00;0.00;;;;;;;;;;5005269;28;20022;-87
2023/11/26 06:14:09;;;;;;;0.05;0.05;;;;;;;;;;5010603;28;20030;-86
2023/11/26 06:16:34;;;;;;;0.10;0.10;;;;;;;;;;5005748;28;20077;-86
2023/11/26 06:19:00;;;;;;;0.10;0.10;;;;;;;;;;5011465;28;20035;-86
2023/11/26 06:21:27;;;;;;;0.10;0.10;;;;;;;;;;4987394;28;20022;-86
2023/11/26 06:23:53;;;;;;;0.10;0.10;;;;;;;;;;4990248;28;20119;-86
2023/11/26 06:26:20;;;;;;;0.10;0.10;;;;;;;;;;5006982;28;20047;-86
2023/11/26 06:28:45;;;;;;;0.03;0.03;;;1.70;99.90;;;;;;4981804;28;20031;-85
2023/11/26 06:31:19;;;;;;;0.00;0.00;;;1.80;99.90;;;;;;4991048;28;20030;-86
2023/11/26 06:33:44;;;;;;;0.00;0.00;;;1.70;99.90;;;;;;4988408;28;20049;-86
2023/11/26 06:36:19;;;;;;;0.00;0.00;;;2.90;99.90;;;;;;5000364;28;20495;-85
2023/11/26 06:38:45;;;;;;;0.10;0.10;;;;;;;;;;4990327;28;20062;-85
2023/11/26 06:41:26;;;;;;;0.00;0.00;;;1.80;99.90;;;;;;4978817;28;20041;-85
2023/11/26 06:43:53;;;;;;;0.10;0.10;;;;;;;;;;5005053;28;20034;-86
2023/11/26 06:46:19;;;;;;;0.00;0.00;;;;;;;;;;5006440;28;20035;-86
2023/11/26 06:48:45;;;;;;;0.00;0.00;;;;;;;;;;4983618;28;20038;-86
2023/11/26 06:51:12;;;;;;;0.00;0.00;;;2.00;99.90;;;;;;5001360;28;20484;-85
2023/11/26 06:53:39;;;;;;;0.10;0.10;;;;;;;;;;4989802;28;20023;-86
2023/11/26 06:56:05;;;;;;;0.00;0.00;;;2.00;99.90;;;;;;5002057;28;20034;-86
2023/11/26 06:58:31;;;;;;;0.10;0.10;;;;;;;;;;4985573;28;20034;-86
2023/11/26 07:00:57;;;;;;;0.00;0.00;;;2.00;99.90;;;;;;4991642;28;20053;-86
2023/11/26 07:03:23;;;;;;;0.10;0.10;;;;;;;;;;4989412;28;20077;-86
2023/11/26 07:05:48;;;;;;;0.10;0.10;;;2.20;99.90;;;;;;4987236;28;20030;-86
2023/11/26 07:08:14;;;;;;;0.10;0.10;;;;;;;;;;5001753;28;20026;-85
2023/11/26 07:10:40;;;;;;;0.00;0.00;;;;;;;;;;4988480;28;20487;-85
2023/11/26 07:13:06;;;;;;;0.10;0.10;;;;;;;;;;5006966;28;20476;-85
2023/11/26 07:15:32;;;;;;;0.10;0.10;;;2.50;99.90;;;;;;4977234;28;20500;-86
2023/11/26 07:18:00;;;;;;;0.03;0.03;;;;;;;;;;4985549;28;20588;-85
2023/11/26 07:20:27;;;;;;;0.00;0.00;;;;;;;;;;4985974;28;20022;-85
2023/11/26 07:22:52;;;;;;;0.10;0.10;;;;;;;;;;4984318;28;20027;-85
2023/11/26 07:25:19;;;;;;;0.08;0.08;;;;;;;;;;5000310;28;20056;-85
2023/11/26 07:27:45;;;;;;;0.10;0.10;;;;;;;;;;4989230;28;20030;-85
2023/11/26 07:30:11;;;;;;;0.10;0.10;;;2.50;99.90;;;;;;5001311;28;20038;-85
2023/11/26 07:32:37;;;;;;;0.00;0.00;;;;;;;;;;4987862;28;20048;-85
2023/11/26 07:35:05;;;;;;;0.10;0.10;;;2.60;99.90;;;;;;4993051;28;20097;-85
2023/11/26 07:37:31;;;;;;;0.03;0.03;;;;;;;;;;4987677;28;20045;-84
2023/11/26 07:39:57;;;;;;;0.00;0.00;;;;;;;;;;4993102;28;20026;-85
2023/11/26 07:42:23;;;;;;;0.10;0.10;;;;;;;;;;4983247;28;20089;-85
2023/11/26 07:44:50;;;;;;;0.10;0.10;;;;;;;;;;5005083;28;20069;-85
2023/11/26 07:47:16;;;;;;;0.00;0.00;;;;;;;;;;4998720;28;20022;-85
2023/11/26 07:49:41;;;;;;;0.00;0.00;;;3.00;99.90;;;;;;5000080;28;20033;-86
2023/11/26 07:52:08;;;;;;;0.05;0.05;;;;;;;;;;4989727;28;20041;-85
2023/11/26 07:54:34;;;;;;;0.10;0.10;;;;;;;;;;4984282;28;20435;-85
2023/11/26 07:56:59;;;;;;;0.10;0.10;;;2.90;99.90;;;;;;4989951;28;20059;-86
2023/11/26 07:59:25;;;;;;;0.00;0.00;;;;;;;;;;4986474;28;20031;-86
2023/11/26 08:01:54;;;;;;;0.10;0.10;;;;;;;;;;5028183;22;20448;-93
2023/11/26 08:04:21;;;;;;;0.10;0.10;;;;;;;;;;5026127;28;20099;-92
2023/11/26 08:06:52;;;;;;;0.10;0.10;;;3.00;99.90;;;;;;5024604;28;20441;-94
2023/11/26 08:09:18;;;;;;;0.10;0.10;;;;;;;;;;5026539;28;20025;-93
2023/11/26 08:11:45;;;;;;;0.10;0.10;;;;;;;;;;5027404;28;20044;-91
2023/11/26 13:07:50;;;;;;;0.10;0.10;;;;;;;;;;5003984;28;20046;-91
2023/11/26 13:10:16;;;;;;;0.10;0.10;;;;;;;;;;5009376;28;20485;-93
2023/11/26 13:12:43;;;;;;;0.10;0.10;;;6.70;99.90;;;;;;5000600;28;20046;-92
2023/11/26 13:15:10;;;;;;;0.10;0.10;;;;;;;;;;5003873;28;20026;-91
2023/11/26 13:17:35;;;;;;;0.10;0.10;;;;;;;;;;5006956;28;20035;-93
2023/11/26 13:20:01;;;;;;;0.10;0.10;;;;;;;;;;4994754;28;20080;-93
2023/11/26 13:22:27;;;;;;;0.10;0.10;;;;;;;;;;4997400;28;20038;-92
2023/11/26 13:24:53;;;;;;;0.10;0.10;;;;;;;;;;4993899;28;20061;-93
2023/11/26 13:27:20;;;;;;;0.10;0.10;;;;;;;;;;4991131;28;20037;-93
2023/11/26 13:29:47;;;;;;;0.00;0.00;;;;;;;;;;4994067;28;20022;-93
2023/11/26 13:32:13;;;;;;;0.10;0.10;;;;;;;;;;5009727;28;20060;-93
2023/11/26 13:34:39;;;;;;;0.10;0.10;;;;;;;;;;4991949;28;20027;-93
2023/11/26 13:37:08;;;;;;;0.10;0.10;;;;;;;;;;4993660;28;20022;-93
2023/11/26 13:39:34;;;;;;;0.10;0.10;;;;;;;;;;5009737;28;20055;-93
2023/11/26 13:42:01;;;;;;;0.08;0.08;;;;;;;;;;4993900;28;20090;-93
2023/11/26 13:44:34;;;;;;;0.10;0.10;;;;;;;;;;4995527;28;20040;-93
2023/11/26 13:47:00;;;;;;;0.00;0.00;;;;;;;;;;5006920;28;20574;-92
2023/11/26 13:49:26;;;;;;;0.03;0.03;;;;;;;;;;5011662;28;20026;-93
2023/11/26 13:51:52;;;;;;;0.10;0.10;;;;;;;;;;5000576;28;20037;-92
2023/11/26 13:54:18;;;;;;;0.05;0.05;;;;;;;;;;4998704;28;20030;-93
2023/11/26 13:56:44;;;;;;;0.00;0.00;;;;;;;;;;5000135;28;20047;-93
2023/11/26 13:59:11;;;;;;;0.10;0.10;;;;;;;;;;4983566;28;20065;-94
2023/11/26 14:01:37;;;;;;;0.10;0.10;;;;;;;;;;5002195;28;20089;-93
2023/11/26 14:04:04;;;;;;;0.10;0.10;;;6.60;99.90;;;;;;5003246;28;20034;-93
2023/11/26 14:06:30;;;;;;;0.10;0.10;;;;;;;;;;4991176;28;20034;-92
2023/11/26 14:08:56;;;;;;;0.10;0.10;;;;;;;;;;4999785;28;20041;-93
2023/11/26 14:11:22;;;;;;;0.10;0.10;;;;;;;;;;4997522;28;20086;-94
2023/11/26 14:13:48;;;;;;;0.10;0.10;;;;;;;;;;4994060;28;20034;-92
2023/11/26 14:16:18;;;;;;;0.03;0.03;;;;;;;;;;4998234;28;20102;-94
2023/11/26 14:18:44;;;;;;;0.10;0.10;;;;;;;;;;4989785;28;20027;-92
2023/11/26 14:21:12;;;;;;;0.10;0.10;;;;;;;;;;5008420;28;20034;-94
2023/11/26 14:23:38;;;;;;;0.10;0.10;;;;;;;;;;5004372;28;20034;-94
2023/11/26 14:26:04;;;;;;;0.10;0.10;;;;;;;;;;4990130;28;20042;-93
2023/11/26 14:28:30;;;;;;;0.00;0.00;;;;;;;;;;5006576;28;20030;-93
2023/11/26 14:30:56;;;;;;;0.00;0.00;;;;;;;;;;5001095;28;20038;-92
2023/11/26 14:33:22;;;;;;;0.10;0.10;;;;;;;;;;4997142;28;20042;-91
2023/11/26 14:35:48;;;;;;;0.05;0.05;;;;;;;;;;5000014;28;20062;-93
2023/11/26 14:38:14;;;;;;;0.10;0.10;;;;;;;;;;4992915;28;20110;-92
2023/11/26 14:40:40;;;;;;;0.10;0.10;;;;;;;;;;5016865;28;20098;-93
2023/11/26 14:43:05;;;;;;;0.00;0.00;;;6.40;99.90;;;;;;5023799;28;20026;-92
2023/11/26 14:45:32;;;;;;;0.00;0.00;;;;;;;;;;5007260;28;20038;-91
2023/11/26 14:47:58;;;;;;;0.10;0.10;;;;;;;;;;5007195;28;20057;-91
2023/11/26 14:50:26;;;;;;;0.10;0.10;;;;;;;;;;5009484;28;20124;-93
2023/11/26 14:52:52;;;;;;;0.10;0.10;;;;;;;;;;5002915;28;20686;-93
2023/11/26 14:55:18;;;;;;;0.00;0.00;;;;;;;;;;5005714;28;20026;-92
2023/11/26 14:57:44;;;;;;;0.10;0.10;;;;;;;;;;4997277;28;20070;-92
2023/11/26 15:00:10;;;;;;;0.10;0.10;;;;;;;;;;5006207;28;20023;-93
2023/11/26 15:02:36;;;;;;;0.03;0.03;;;;;;;;;;5000556;28;20057;-92
2023/11/26 15:05:05;;;;;;;0.10;0.10;;;;;;;;;;4992558;28;20200;-93
2023/11/26 15:07:31;;;;;;;0.10;0.10;;;;;;;;;;5001696;28;20034;-92
2023/11/26 15:09:57;;;;;;;0.10;0.10;;;;;;;;;;4997997;28;20273;-91
2023/11/26 15:12:25;;;;;;;0.10;0.10;;;;;;;;;;4985287;28;20084;-93
2023/11/26 15:14:50;;;;;;;0.10;0.10;;;;;;;;;;4999125;28;20026;-93
2023/11/26 15:17:17;;;;;;;0.10;0.10;;;;;;;;;;4989165;28;20091;-93
2023/11/26 15:19:43;;;;;;;0.10;0.10;;;;;;;;;;4996333;28;20022;-93
2023/11/26 15:22:10;;;;;;;0.10;0.10;;;;;;;;;;5001072;28;20142;-93
2023/11/26 15:24:38;;;;;;;0.10;0.10;;;6.20;99.90;;;;;;4996328;28;20382;-92
2023/11/26 15:27:04;;;;;;;0.10;0.10;;;;;;;;;;4992293;28;20543;-94
2023/11/26 15:29:30;;;;;;;0.10;0.10;;;;;;;;;;5006593;28;20037;-92
2023/11/26 15:31:56;;;;;;;0.10;0.10;;;;;;;;;;5004196;28;20030;-94
2023/11/26 15:34:22;;;;;;;0.10;0.10;;;;;;;;;;4997646;28;20030;-93
2023/11/26 15:36:48;;;;;;;0.08;0.08;;;;;;;;;;5006277;28;20258;-91
2023/11/26 15:39:22;;;;;;;0.10;0.10;;;;;;;;;;4995250;28;20034;-93
2023/11/26 15:41:48;;;;;;;0.10;0.10;;;;;;;;;;4999040;28;20121;-93
2023/11/26 15:44:14;;;;;;;0.10;0.10;;;;;;;;;;4989061;28;20176;-93
2023/11/26 15:46:40;;;;;;;0.10;0.10;;;;;;;;;;5002384;28;20037;-94
2023/11/26 15:49:07;;;;;;;0.10;0.10;;;;;;;;;;4990723;28;20910;-93
2023/11/26 15:51:33;;;;;;;0.10;0.10;;;;;;;;;;5011456;28;20034;-93
2023/11/26 15:54:00;;;;;;;0.00;0.00;;;;;;;;;;4995303;28;20401;-93
2023/11/26 15:56:26;;;;;;;0.10;0.10;;;;;;;;;;5002321;28;20029;-91
2023/11/26 15:58:52;;;;;;;0.08;0.08;;;;;;;;;;4983671;28;20489;-94
2023/11/26 16:01:19;;;;;;;0.10;0.10;;;;;;;;;;5001184;28;20492;-94
2023/11/26 16:03:45;;;;;;;0.10;0.10;;;;;;;;;;5009987;28;20477;-95
2023/11/26 16:06:11;;;;;;;0.10;0.10;;;;;;;;;;4990256;28;20066;-93
2023/11/26 16:08:38;;;;;;;0.10;0.10;;;;;;;;;;5007371;28;20035;-93
2023/11/26 16:11:04;;;;;;;0.10;0.10;;;;;;;;;;5004234;28;20034;-93
2023/11/26 16:13:32;;;;;;;0.10;0.10;;;;;;;;;;4988914;28;20127;-93
2023/11/26 16:15:58;;;;;;;0.10;0.10;;;;;;;;;;4987155;28;20074;-90
2023/11/26 16:18:24;;;;;;;0.10;0.10;;;;;;;;;;4994704;28;20022;-94
2023/11/26 16:20:50;;;;;;;0.00;0.00;;;;;;;;;;4990520;28;20404;-93
2023/11/26 16:23:16;;;;;;;0.10;0.10;;;;;;;;;;4993269;28;20586;-94
2023/11/26 16:25:42;;;;;;;0.10;0.10;;;;;;;;;;5002757;28;20065;-94
2023/11/26 16:28:08;;;;;;;0.05;0.05;;;;;;;;;;5008219;28;20030;-93
2023/11/26 16:30:34;;;;;;;0.10;0.10;;;;;;;;;;4992786;28;20049;-93
2023/11/26 16:33:01;;;;;;;0.10;0.10;;;;;;;;;;4994202;28;20030;-93
2023/11/26 16:35:27;;;;;;;0.10;0.10;;;;;;;;;;4998051;28;20085;-92
2023/11/26 16:37:53;;;;;;;0.10;0.10;;;;;;;;;;5000827;28;20471;-94
2023/11/26 16:40:19;;;;;;;0.00;0.00;;;;;;;;;;4988042;28;20033;-91
2023/11/26 16:42:45;;;;;;;0.10;0.10;;;;;;;;;;4995745;28;20033;-92
2023/11/26 16:45:11;;;;;;;0.10;0.10;;;;;;;;;;4993662;28;20033;-91
2023/11/26 16:47:37;;;;;;;0.08;0.08;;;;;;;;;;4991857;28;20275;-93
2023/11/26 16:50:04;;;;;;;0.10;0.10;;;6.20;99.90;;;;;;4982706;28;20487;-93
2023/11/26 16:52:30;;;;;;;0.10;0.10;;;;;;;;;;4990362;28;20528;-91
2023/11/26 16:54:56;;;;;;;0.00;0.00;;;;;;;;;;5006159;28;20089;-93
2023/11/26 16:57:22;;;;;;;0.10;0.10;;;;;;;;;;4994973;28;20482;-92
2023/11/26 16:59:49;;;;;;;0.10;0.10;;;;;;;;;;4988808;28;20062;-93
2023/11/26 17:02:20;;;;;;;0.10;0.10;;;6.20;99.90;;;;;;4996348;28;20038;-93
2023/11/26 17:04:49;;;;;;;0.10;0.10;;;;;;;;;;4989203;28;20509;-92
2023/11/26 17:07:15;;;;;;;0.10;0.10;;;;;;;;;;5003894;28;20031;-92
2023/11/26 17:09:42;;;;;;;0.10;0.10;;;;;;;;;;4989847;28;20028;-92
2023/11/26 17:12:09;;;;;;;0.10;0.10;;;;;;;;;;5004598;28;20042;-93
2023/11/26 17:14:36;;;;;;;0.10;0.10;;;;;;;;;;4995756;28;20452;-92
2023/11/26 17:17:02;;;;;;;0.10;0.10;;;;;;;;;;5008921;28;20105;-93
2023/11/26 17:19:28;;;;;;;0.10;0.10;;;;;;;;;;5002203;28;20117;-92
2023/11/26 17:21:54;;;;;;;0.10;0.10;;;;;;;;;;4987773;28;20113;-91
2023/11/26 17:24:20;;;;;;;0.10;0.10;;;;;;;;;;4990713;28;20085;-93
2023/11/26 17:26:46;;;;;;;0.10;0.10;;;;;;;;;;5002374;28;20394;-92
2023/11/26 17:29:12;;;;;;;0.10;0.10;;;;;;;;;;4994553;28;20258;-92
2023/11/26 17:31:39;;;;;;;0.10;0.10;;;;;;;;;;4989312;28;20030;-93
2023/11/26 17:34:06;;;;;;;0.10;0.10;;;;;;;;;;4999318;28;20019;-91
2023/11/26 17:36:33;;;;;;;0.10;0.10;;;;;;;;;;4995369;28;20030;-93
2023/11/26 17:38:59;;;;;;;0.10;0.10;;;;;;;;;;4989849;28;20109;-92
2023/11/26 17:41:26;;;;;;;0.10;0.10;;;;;;;;;;4991564;28;20026;-93
2023/11/26 17:43:52;;;;;;;0.10;0.10;;;;;;;;;;4991755;28;20058;-94
2023/11/26 17:46:18;;;;;;;0.00;0.00;;;;;;;;;;5002473;28;20034;-92
2023/11/26 17:48:44;;;;;;;0.00;0.00;;;;;;;;;;4995715;28;20034;-92
2023/11/26 17:51:11;;;;;;;0.10;0.10;;;;;;;;;;4985829;28;20030;-92
2023/11/26 17:53:37;;;;;;;0.05;0.05;;;;;;;;;;4988836;28;20089;-94
2023/11/26 17:56:03;;;;;;;0.10;0.10;;;6.20;99.90;;;;;;4997151;28;20034;-90
2023/11/26 17:58:30;;;;;;;0.10;0.10;;;;;;;;;;4999532;28;20082;-94
2023/11/26 18:00:55;;;;;;;0.05;0.05;;;;;;;;;;5020701;28;20390;-95
2023/11/26 18:03:21;;;;;;;0.10;0.10;;;;;;;;;;5005001;28;20030;-93
2023/11/26 18:05:48;;;;;;;0.10;0.10;;;;;;;;;;4986566;28;20505;-93
2023/11/26 18:08:14;;;;;;;0.10;0.10;;;;;;;;;;4987358;28;20026;-94
2023/11/26 18:10:40;;;;;;;0.00;0.00;;;;;;;;;;5012488;28;20497;-94
2023/11/26 18:13:06;;;;;;;0.10;0.10;;;;;;;;;;5008129;28;20327;-94
2023/11/26 18:15:32;;;;;;;0.10;0.10;;;;;;;;;;4987346;28;20057;-91
2023/11/26 18:17:58;;;;;;;0.10;0.10;;;;;;;;;;4999779;28;20018;-93
2023/11/26 18:20:24;;;;;;;0.10;0.10;;;;;;;;;;4995479;28;20041;-93
2023/11/26 18:22:50;;;;;;;0.10;0.10;;;;;;;;;;4987650;28;20045;-92
2023/11/26 18:25:17;;;;;;;0.00;0.00;;;;;;;;;;4987722;28;20037;-92
2023/11/26 18:27:43;;;;;;;0.10;0.10;;;;;;;;;;4983279;28;20030;-92
2023/11/26 18:30:09;;;;;;;0.10;0.10;;;;;;;;;;4990542;28;20049;-92
2023/11/26 18:32:35;;;;;;;0.10;0.10;;;;;;;;;;5003138;28;20030;-93
2023/11/26 18:35:02;;;;;;;0.10;0.10;;;;;;;;;;5001373;28;20038;-92
2023/11/26 18:37:28;;;;;;;0.10;0.10;;;;;;;;;;4985594;28;20033;-92
2023/11/26 18:39:55;;;;;;;0.10;0.10;;;;;;;;;;5005539;28;20547;-93
2023/11/26 18:42:21;;;;;;;0.10;0.10;;;;;;;;;;4988831;28;20034;-92
2023/11/26 18:44:47;;;;;;;0.05;0.05;;;;;;;;;;4990449;28;20030;-93
2023/11/26 18:47:13;;;;;;;0.10;0.10;;;;;;;;;;4988215;28;20100;-93
2023/11/26 18:49:40;;;;;;;0.10;0.10;;;;;;;;;;4988023;28;20065;-92
2023/11/26 18:52:15;;;;;;;0.10;0.10;;;;;;;;;;4989015;28;20045;-93
2023/11/26 18:54:40;;;;;;;0.10;0.10;;;;;;;;;;4982648;28;20041;-93
2023/11/26 18:57:06;;;;;;;0.10;0.10;;;;;;;;;;5001088;28;20023;-93
2023/11/26 18:59:32;;;;;;;0.10;0.10;;;;;;;;;;4987190;28;20033;-93
2023/11/26 19:01:58;;;;;;;0.10;0.10;;;6.10;99.90;;;;;;5000454;28;20106;-93
